aviador You're here:

KBLF Decoded Metar

BLUEFIELD in WV, USA
Report Time2018-07-21 07:55:00
UTC Time2018-07-21 08:10:54
Flight Rules lifr LIFR
Wind260° at 06 kt
W.Decomp.*RWY 23: 4.8 kt HW 3.6 kt RCW
W.Rank260° ranks 1
Current wind is below 260° avg. (7.4)
Visibility4828 m
Phenomena:Mist
Clouds:Broken 002 Hf
Overcast 030 Hf
Ceiling200 ft
Temp15°C (ISA +6)
Dew Point15°C (100% RH)
AAT14.5°C
QNH1017 hPa
Density Alt3,638 ft
Elevation2,864 ft
Report Wrong Elevation
Raw Report
KBLF 210755Z AUTO 26006KT 3SM BR BKN002 OVC030 15/15 A3002 RMK AO2
T01500150=

Extra information for KBLF:More info

Metar Taf Metar & Taf Last 4 Metars F.Rules Stats Wind Profile Meteogram Temp Stats Airport Information Weather charts Add Link Nearby VenuesMetar ALERT Operation Metar Decoded Social comments

AIRNAV info for KBLF